sensor_id;sensor_type;location;lat;lon;timestamp;P1;durP1;ratioP1;P2;durP2;ratioP2
66437;SDS011;54537;47.972;11.662;2023-11-21T00:01:03;8.38;;;1.38;;
66437;SDS011;54537;47.972;11.662;2023-11-21T00:03:30;9.88;;;1.55;;
66437;SDS011;54537;47.972;11.662;2023-11-21T00:05:58;5.38;;;1.65;;
66437;SDS011;54537;47.972;11.662;2023-11-21T00:08:25;4.05;;;1.48;;
66437;SDS011;54537;47.972;11.662;2023-11-21T00:10:52;5.65;;;1.52;;
66437;SDS011;54537;47.972;11.662;2023-11-21T00:13:20;10.95;;;1.77;;
66437;SDS011;54537;47.972;11.662;2023-11-21T00:15:46;8.95;;;1.80;;
66437;SDS011;54537;47.972;11.662;2023-11-21T00:18:13;5.93;;;1.60;;
66437;SDS011;54537;47.972;11.662;2023-11-21T00:20:39;8.52;;;1.60;;
66437;SDS011;54537;47.972;11.662;2023-11-21T00:23:07;6.78;;;1.35;;
66437;SDS011;54537;47.972;11.662;2023-11-21T00:25:34;6.43;;;1.52;;
66437;SDS011;54537;47.972;11.662;2023-11-21T00:28:01;7.30;;;1.70;;
66437;SDS011;54537;47.972;11.662;2023-11-21T00:30:28;9.95;;;2.65;;
66437;SDS011;54537;47.972;11.662;2023-11-21T00:32:56;8.48;;;1.73;;
66437;SDS011;54537;47.972;11.662;2023-11-21T00:35:22;6.53;;;1.65;;
66437;SDS011;54537;47.972;11.662;2023-11-21T00:37:48;3.08;;;1.42;;
66437;SDS011;54537;47.972;11.662;2023-11-21T00:40:16;7.38;;;1.65;;
66437;SDS011;54537;47.972;11.662;2023-11-21T00:42:44;7.05;;;1.55;;
66437;SDS011;54537;47.972;11.662;2023-11-21T00:45:11;11.00;;;1.48;;
66437;SDS011;54537;47.972;11.662;2023-11-21T00:47:38;7.90;;;1.60;;
66437;SDS011;54537;47.972;11.662;2023-11-21T00:50:04;11.57;;;1.80;;
66437;SDS011;54537;47.972;11.662;2023-11-21T00:52:32;8.70;;;1.85;;
66437;SDS011;54537;47.972;11.662;2023-11-21T00:54:58;6.10;;;1.73;;
66437;SDS011;54537;47.972;11.662;2023-11-21T00:57:26;8.23;;;1.65;;
66437;SDS011;54537;47.972;11.662;2023-11-21T00:59:53;7.25;;;1.65;;
66437;SDS011;54537;47.972;11.662;2023-11-21T01:02:19;5.95;;;1.50;;
66437;SDS011;54537;47.972;11.662;2023-11-21T01:04:46;4.22;;;1.55;;
66437;SDS011;54537;47.972;11.662;2023-11-21T01:07:12;4.50;;;1.45;;
66437;SDS011;54537;47.972;11.662;2023-11-21T01:09:39;11.77;;;1.63;;
66437;SDS011;54537;47.972;11.662;2023-11-21T01:12:06;10.77;;;2.00;;
66437;SDS011;54537;47.972;11.662;2023-11-21T01:14:34;8.05;;;2.13;;
66437;SDS011;54537;47.972;11.662;2023-11-21T01:17:02;7.47;;;1.30;;
66437;SDS011;54537;47.972;11.662;2023-11-21T01:19:29;5.07;;;1.40;;
66437;SDS011;54537;47.972;11.662;2023-11-21T01:21:55;6.90;;;1.63;;
66437;SDS011;54537;47.972;11.662;2023-11-21T01:24:23;4.78;;;1.70;;
66437;SDS011;54537;47.972;11.662;2023-11-21T01:26:50;2.80;;;1.33;;
66437;SDS011;54537;47.972;11.662;2023-11-21T01:29:17;6.10;;;1.35;;
66437;SDS011;54537;47.972;11.662;2023-11-21T01:31:44;6.95;;;1.30;;
66437;SDS011;54537;47.972;11.662;2023-11-21T01:34:12;4.97;;;1.33;;
66437;SDS011;54537;47.972;11.662;2023-11-21T01:36:39;5.93;;;1.50;;
66437;SDS011;54537;47.972;11.662;2023-11-21T01:39:05;5.07;;;1.30;;
66437;SDS011;54537;47.972;11.662;2023-11-21T01:41:36;3.35;;;1.55;;
66437;SDS011;54537;47.972;11.662;2023-11-21T01:44:03;7.15;;;1.50;;
66437;SDS011;54537;47.972;11.662;2023-11-21T01:46:32;4.47;;;1.30;;
66437;SDS011;54537;47.972;11.662;2023-11-21T01:49:01;6.90;;;1.83;;
66437;SDS011;54537;47.972;11.662;2023-11-21T01:51:27;6.68;;;1.27;;
66437;SDS011;54537;47.972;11.662;2023-11-21T01:53:54;4.40;;;1.42;;
66437;SDS011;54537;47.972;11.662;2023-11-21T01:56:21;6.18;;;1.40;;
66437;SDS011;54537;47.972;11.662;2023-11-21T01:58:47;6.13;;;1.38;;
66437;SDS011;54537;47.972;11.662;2023-11-21T02:01:14;5.65;;;1.60;;
66437;SDS011;54537;47.972;11.662;2023-11-21T02:03:40;8.02;;;1.95;;
66437;SDS011;54537;47.972;11.662;2023-11-21T02:06:08;5.53;;;1.45;;
66437;SDS011;54537;47.972;11.662;2023-11-21T02:08:34;7.70;;;1.60;;
66437;SDS011;54537;47.972;11.662;2023-11-21T02:11:02;6.72;;;1.48;;
66437;SDS011;54537;47.972;11.662;2023-11-21T02:13:29;5.15;;;1.55;;
66437;SDS011;54537;47.972;11.662;2023-11-21T02:15:56;7.57;;;2.30;;
66437;SDS011;54537;47.972;11.662;2023-11-21T02:18:23;7.88;;;1.67;;
66437;SDS011;54537;47.972;11.662;2023-11-21T02:20:49;8.15;;;1.40;;
66437;SDS011;54537;47.972;11.662;2023-11-21T02:23:17;7.57;;;1.58;;
66437;SDS011;54537;47.972;11.662;2023-11-21T02:25:44;6.65;;;1.73;;
66437;SDS011;54537;47.972;11.662;2023-11-21T02:28:10;5.65;;;1.42;;
66437;SDS011;54537;47.972;11.662;2023-11-21T02:30:37;3.08;;;1.23;;
66437;SDS011;54537;47.972;11.662;2023-11-21T02:33:04;5.70;;;1.70;;
66437;SDS011;54537;47.972;11.662;2023-11-21T02:35:31;7.32;;;1.25;;
66437;SDS011;54537;47.972;11.662;2023-11-21T02:37:57;9.55;;;1.67;;
66437;SDS011;54537;47.972;11.662;2023-11-21T02:40:25;7.57;;;1.52;;
66437;SDS011;54537;47.972;11.662;2023-11-21T02:42:52;10.35;;;1.67;;
66437;SDS011;54537;47.972;11.662;2023-11-21T02:45:19;5.28;;;1.75;;
66437;SDS011;54537;47.972;11.662;2023-11-21T02:47:46;6.10;;;1.80;;
66437;SDS011;54537;47.972;11.662;2023-11-21T02:50:14;7.03;;;2.30;;
66437;SDS011;54537;47.972;11.662;2023-11-21T02:52:40;4.25;;;1.67;;
66437;SDS011;54537;47.972;11.662;2023-11-21T02:55:07;3.85;;;1.60;;
66437;SDS011;54537;47.972;11.662;2023-11-21T02:57:35;6.43;;;1.88;;
66437;SDS011;54537;47.972;11.662;2023-11-21T03:00:02;9.98;;;2.65;;
66437;SDS011;54537;47.972;11.662;2023-11-21T03:02:32;15.38;;;3.45;;
66437;SDS011;54537;47.972;11.662;2023-11-21T03:05:01;11.82;;;3.10;;
66437;SDS011;54537;47.972;11.662;2023-11-21T03:07:30;8.73;;;2.20;;
66437;SDS011;54537;47.972;11.662;2023-11-21T03:09:56;5.90;;;1.80;;
66437;SDS011;54537;47.972;11.662;2023-11-21T03:12:22;11.45;;;2.10;;
66437;SDS011;54537;47.972;11.662;2023-11-21T03:14:50;6.63;;;1.60;;
66437;SDS011;54537;47.972;11.662;2023-11-21T03:17:17;9.32;;;1.88;;
66437;SDS011;54537;47.972;11.662;2023-11-21T03:19:43;6.50;;;1.90;;
66437;SDS011;54537;47.972;11.662;2023-11-21T03:22:10;9.52;;;1.67;;
66437;SDS011;54537;47.972;11.662;2023-11-21T03:24:36;8.00;;;1.67;;
66437;SDS011;54537;47.972;11.662;2023-11-21T03:27:03;16.35;;;2.80;;
66437;SDS011;54537;47.972;11.662;2023-11-21T03:29:30;5.07;;;1.40;;
66437;SDS011;54537;47.972;11.662;2023-11-21T03:31:58;7.28;;;1.77;;
66437;SDS011;54537;47.972;11.662;2023-11-21T03:34:25;5.63;;;1.58;;
66437;SDS011;54537;47.972;11.662;2023-11-21T03:36:52;4.88;;;1.65;;
66437;SDS011;54537;47.972;11.662;2023-11-21T03:39:19;3.22;;;0.80;;
66437;SDS011;54537;47.972;11.662;2023-11-21T03:41:46;7.22;;;1.58;;
66437;SDS011;54537;47.972;11.662;2023-11-21T03:44:12;3.92;;;1.00;;
66437;SDS011;54537;47.972;11.662;2023-11-21T03:46:39;7.22;;;1.25;;
66437;SDS011;54537;47.972;11.662;2023-11-21T03:49:07;3.63;;;1.20;;
66437;SDS011;54537;47.972;11.662;2023-11-21T03:51:33;2.78;;;1.00;;
66437;SDS011;54537;47.972;11.662;2023-11-21T03:54:00;6.05;;;1.30;;
66437;SDS011;54537;47.972;11.662;2023-11-21T03:56:26;5.90;;;1.30;;
66437;SDS011;54537;47.972;11.662;2023-11-21T03:58:53;2.72;;;0.93;;
66437;SDS011;54537;47.972;11.662;2023-11-21T04:01:20;4.22;;;0.90;;
66437;SDS011;54537;47.972;11.662;2023-11-21T04:03:47;5.10;;;1.25;;
66437;SDS011;54537;47.972;11.662;2023-11-21T04:06:16;2.13;;;1.00;;
66437;SDS011;54537;47.972;11.662;2023-11-21T04:08:43;3.55;;;1.10;;
66437;SDS011;54537;47.972;11.662;2023-11-21T04:11:10;6.30;;;1.27;;
66437;SDS011;54537;47.972;11.662;2023-11-21T04:13:37;3.55;;;1.20;;
66437;SDS011;54537;47.972;11.662;2023-11-21T04:16:05;4.38;;;0.90;;
66437;SDS011;54537;47.972;11.662;2023-11-21T04:18:31;4.55;;;1.02;;
66437;SDS011;54537;47.972;11.662;2023-11-21T04:20:58;3.88;;;1.30;;
66437;SDS011;54537;47.972;11.662;2023-11-21T04:23:27;5.75;;;1.60;;
66437;SDS011;54537;47.972;11.662;2023-11-21T04:25:53;6.90;;;1.50;;
66437;SDS011;54537;47.972;11.662;2023-11-21T04:28:22;4.18;;;1.63;;
66437;SDS011;54537;47.972;11.662;2023-11-21T04:30:49;6.07;;;1.42;;
66437;SDS011;54537;47.972;11.662;2023-11-21T04:33:15;3.05;;;1.13;;
66437;SDS011;54537;47.972;11.662;2023-11-21T04:35:42;2.53;;;1.45;;
66437;SDS011;54537;47.972;11.662;2023-11-21T04:38:09;2.13;;;1.20;;
66437;SDS011;54537;47.972;11.662;2023-11-21T04:40:36;7.95;;;1.60;;
66437;SDS011;54537;47.972;11.662;2023-11-21T04:43:03;13.07;;;2.20;;
66437;SDS011;54537;47.972;11.662;2023-11-21T04:45:30;6.50;;;1.75;;
66437;SDS011;54537;47.972;11.662;2023-11-21T04:47:56;4.53;;;1.63;;
66437;SDS011;54537;47.972;11.662;2023-11-21T04:50:22;3.13;;;1.50;;
66437;SDS011;54537;47.972;11.662;2023-11-21T04:52:51;2.53;;;1.17;;
66437;SDS011;54537;47.972;11.662;2023-11-21T04:55:17;6.70;;;1.48;;
66437;SDS011;54537;47.972;11.662;2023-11-21T04:57:46;3.95;;;1.40;;
66437;SDS011;54537;47.972;11.662;2023-11-21T05:00:12;8.18;;;1.30;;
66437;SDS011;54537;47.972;11.662;2023-11-21T05:02:41;3.45;;;1.00;;
66437;SDS011;54537;47.972;11.662;2023-11-21T05:05:08;6.00;;;1.60;;
66437;SDS011;54537;47.972;11.662;2023-11-21T05:07:35;4.97;;;1.50;;
66437;SDS011;54537;47.972;11.662;2023-11-21T05:10:03;7.20;;;1.30;;
66437;SDS011;54537;47.972;11.662;2023-11-21T05:12:33;4.22;;;1.30;;
66437;SDS011;54537;47.972;11.662;2023-11-21T05:15:02;5.90;;;1.30;;
66437;SDS011;54537;47.972;11.662;2023-11-21T05:17:32;5.78;;;1.02;;
66437;SDS011;54537;47.972;11.662;2023-11-21T05:19:59;4.68;;;1.30;;
66437;SDS011;54537;47.972;11.662;2023-11-21T05:22:26;3.75;;;1.02;;
66437;SDS011;54537;47.972;11.662;2023-11-21T05:24:53;3.20;;;0.98;;
66437;SDS011;54537;47.972;11.662;2023-11-21T05:27:19;3.58;;;0.77;;
66437;SDS011;54537;47.972;11.662;2023-11-21T05:29:46;4.65;;;0.90;;
66437;SDS011;54537;47.972;11.662;2023-11-21T05:32:13;1.95;;;0.95;;
66437;SDS011;54537;47.972;11.662;2023-11-21T05:34:41;3.08;;;0.80;;
66437;SDS011;54537;47.972;11.662;2023-11-21T05:37:08;1.15;;;0.65;;
66437;SDS011;54537;47.972;11.662;2023-11-21T05:39:34;1.67;;;0.70;;
66437;SDS011;54537;47.972;11.662;2023-11-21T05:42:01;0.80;;;0.60;;
66437;SDS011;54537;47.972;11.662;2023-11-21T05:44:28;3.03;;;1.08;;
66437;SDS011;54537;47.972;11.662;2023-11-21T05:46:55;3.25;;;1.00;;
66437;SDS011;54537;47.972;11.662;2023-11-21T05:49:24;6.97;;;1.33;;
66437;SDS011;54537;47.972;11.662;2023-11-21T05:51:51;6.57;;;1.00;;
66437;SDS011;54537;47.972;11.662;2023-11-21T05:54:19;1.30;;;0.95;;
66437;SDS011;54537;47.972;11.662;2023-11-21T05:56:45;2.83;;;0.85;;
66437;SDS011;54537;47.972;11.662;2023-11-21T05:59:12;2.40;;;1.10;;
66437;SDS011;54537;47.972;11.662;2023-11-21T06:01:39;3.88;;;1.00;;
66437;SDS011;54537;47.972;11.662;2023-11-21T06:04:06;2.58;;;1.00;;
66437;SDS011;54537;47.972;11.662;2023-11-21T06:06:34;2.05;;;1.00;;
66437;SDS011;54537;47.972;11.662;2023-11-21T06:09:01;3.53;;;1.10;;
66437;SDS011;54537;47.972;11.662;2023-11-21T06:11:27;3.58;;;1.15;;
66437;SDS011;54537;47.972;11.662;2023-11-21T06:13:54;3.42;;;1.20;;
66437;SDS011;54537;47.972;11.662;2023-11-21T06:16:20;9.80;;;2.35;;
66437;SDS011;54537;47.972;11.662;2023-11-21T06:18:47;15.60;;;5.80;;
66437;SDS011;54537;47.972;11.662;2023-11-21T06:21:13;20.23;;;7.30;;
66437;SDS011;54537;47.972;11.662;2023-11-21T06:23:43;12.02;;;4.05;;
66437;SDS011;54537;47.972;11.662;2023-11-21T06:26:09;6.00;;;1.58;;
66437;SDS011;54537;47.972;11.662;2023-11-21T06:28:36;6.90;;;1.70;;
66437;SDS011;54537;47.972;11.662;2023-11-21T06:31:02;4.25;;;1.30;;
66437;SDS011;54537;47.972;11.662;2023-11-21T06:33:30;7.72;;;1.60;;
66437;SDS011;54537;47.972;11.662;2023-11-21T06:35:56;3.88;;;2.03;;
66437;SDS011;54537;47.972;11.662;2023-11-21T06:38:23;5.22;;;1.90;;
66437;SDS011;54537;47.972;11.662;2023-11-21T06:40:51;4.47;;;1.95;;
66437;SDS011;54537;47.972;11.662;2023-11-21T06:43:17;5.93;;;1.65;;
66437;SDS011;54537;47.972;11.662;2023-11-21T06:45:44;4.60;;;1.20;;
66437;SDS011;54537;47.972;11.662;2023-11-21T06:48:10;4.70;;;1.08;;
66437;SDS011;54537;47.972;11.662;2023-11-21T06:50:37;4.57;;;1.23;;
66437;SDS011;54537;47.972;11.662;2023-11-21T06:53:03;5.45;;;1.20;;
66437;SDS011;54537;47.972;11.662;2023-11-21T06:55:32;3.20;;;1.30;;
66437;SDS011;54537;47.972;11.662;2023-11-21T06:58:00;4.63;;;1.17;;
66437;SDS011;54537;47.972;11.662;2023-11-21T07:00:26;2.03;;;1.30;;
66437;SDS011;54537;47.972;11.662;2023-11-21T07:02:54;4.25;;;1.63;;
66437;SDS011;54537;47.972;11.662;2023-11-21T07:05:20;6.43;;;1.80;;
66437;SDS011;54537;47.972;11.662;2023-11-21T07:07:47;4.07;;;1.58;;
66437;SDS011;54537;47.972;11.662;2023-11-21T07:10:14;4.45;;;1.65;;
66437;SDS011;54537;47.972;11.662;2023-11-21T07:12:40;7.03;;;1.35;;
66437;SDS011;54537;47.972;11.662;2023-11-21T07:15:09;8.68;;;1.95;;
66437;SDS011;54537;47.972;11.662;2023-11-21T07:17:36;4.38;;;2.22;;
66437;SDS011;54537;47.972;11.662;2023-11-21T07:20:03;5.35;;;1.58;;
66437;SDS011;54537;47.972;11.662;2023-11-21T07:22:31;7.22;;;1.75;;
66437;SDS011;54537;47.972;11.662;2023-11-21T07:24:58;7.57;;;1.92;;
66437;SDS011;54537;47.972;11.662;2023-11-21T07:27:24;8.82;;;1.98;;
66437;SDS011;54537;47.972;11.662;2023-11-21T07:29:51;6.85;;;1.80;;
66437;SDS011;54537;47.972;11.662;2023-11-21T07:32:18;9.30;;;1.77;;
66437;SDS011;54537;47.972;11.662;2023-11-21T07:34:45;4.38;;;1.42;;
66437;SDS011;54537;47.972;11.662;2023-11-21T07:37:12;9.73;;;1.60;;
66437;SDS011;54537;47.972;11.662;2023-11-21T07:39:38;5.82;;;1.60;;
66437;SDS011;54537;47.972;11.662;2023-11-21T07:42:07;4.35;;;1.70;;
66437;SDS011;54537;47.972;11.662;2023-11-21T07:44:34;4.32;;;1.52;;
66437;SDS011;54537;47.972;11.662;2023-11-21T07:47:00;8.05;;;1.65;;
66437;SDS011;54537;47.972;11.662;2023-11-21T07:49:28;3.85;;;1.23;;
66437;SDS011;54537;47.972;11.662;2023-11-21T07:51:54;4.60;;;1.30;;
66437;SDS011;54537;47.972;11.662;2023-11-21T07:54:21;2.45;;;1.10;;
66437;SDS011;54537;47.972;11.662;2023-11-21T07:56:47;2.70;;;1.15;;
66437;SDS011;54537;47.972;11.662;2023-11-21T07:59:14;4.07;;;1.35;;
66437;SDS011;54537;47.972;11.662;2023-11-21T08:01:42;2.45;;;1.30;;
66437;SDS011;54537;47.972;11.662;2023-11-21T08:04:10;2.38;;;1.30;;
66437;SDS011;54537;47.972;11.662;2023-11-21T08:06:39;5.35;;;1.50;;
66437;SDS011;54537;47.972;11.662;2023-11-21T08:09:06;1.73;;;1.15;;
66437;SDS011;54537;47.972;11.662;2023-11-21T08:11:33;4.80;;;1.23;;
66437;SDS011;54537;47.972;11.662;2023-11-21T08:13:59;3.20;;;1.20;;
66437;SDS011;54537;47.972;11.662;2023-11-21T08:16:26;4.80;;;1.50;;
66437;SDS011;54537;47.972;11.662;2023-11-21T08:18:53;2.45;;;1.35;;
66437;SDS011;54537;47.972;11.662;2023-11-21T08:21:20;1.90;;;1.23;;
66437;SDS011;54537;47.972;11.662;2023-11-21T08:23:50;6.97;;;1.52;;
66437;SDS011;54537;47.972;11.662;2023-11-21T08:26:19;3.08;;;1.20;;
66437;SDS011;54537;47.972;11.662;2023-11-21T08:28:45;3.42;;;1.35;;
66437;SDS011;54537;47.972;11.662;2023-11-21T08:31:12;3.85;;;1.30;;
66437;SDS011;54537;47.972;11.662;2023-11-21T08:33:38;3.92;;;1.50;;
66437;SDS011;54537;47.972;11.662;2023-11-21T08:36:06;2.47;;;1.20;;
66437;SDS011;54537;47.972;11.662;2023-11-21T08:38:33;3.63;;;1.30;;
66437;SDS011;54537;47.972;11.662;2023-11-21T08:41:04;2.15;;;1.20;;
66437;SDS011;54537;47.972;11.662;2023-11-21T08:43:32;3.00;;;1.00;;
66437;SDS011;54537;47.972;11.662;2023-11-21T08:45:59;3.47;;;1.45;;
66437;SDS011;54537;47.972;11.662;2023-11-21T08:48:26;6.50;;;1.52;;
66437;SDS011;54537;47.972;11.662;2023-11-21T08:50:54;3.22;;;1.38;;
66437;SDS011;54537;47.972;11.662;2023-11-21T08:53:21;2.45;;;1.35;;
66437;SDS011;54537;47.972;11.662;2023-11-21T08:55:48;2.55;;;1.20;;
66437;SDS011;54537;47.972;11.662;2023-11-21T08:58:16;2.92;;;1.25;;
66437;SDS011;54537;47.972;11.662;2023-11-21T09:00:43;4.55;;;1.30;;
66437;SDS011;54537;47.972;11.662;2023-11-21T09:03:11;2.97;;;1.27;;
66437;SDS011;54537;47.972;11.662;2023-11-21T09:05:38;5.30;;;1.30;;
66437;SDS011;54537;47.972;11.662;2023-11-21T09:08:05;2.70;;;1.20;;
66437;SDS011;54537;47.972;11.662;2023-11-21T09:10:31;2.47;;;1.35;;
66437;SDS011;54537;47.972;11.662;2023-11-21T09:13:00;3.50;;;1.42;;
66437;SDS011;54537;47.972;11.662;2023-11-21T09:15:28;3.05;;;1.45;;
66437;SDS011;54537;47.972;11.662;2023-11-21T09:17:55;6.85;;;1.40;;
66437;SDS011;54537;47.972;11.662;2023-11-21T09:20:21;4.45;;;1.10;;
66437;SDS011;54537;47.972;11.662;2023-11-21T09:22:48;5.63;;;1.40;;
66437;SDS011;54537;47.972;11.662;2023-11-21T09:25:15;5.55;;;1.40;;
66437;SDS011;54537;47.972;11.662;2023-11-21T09:27:42;2.25;;;1.13;;
66437;SDS011;54537;47.972;11.662;2023-11-21T09:30:08;2.78;;;1.20;;
66437;SDS011;54537;47.972;11.662;2023-11-21T09:32:37;2.95;;;1.10;;
66437;SDS011;54537;47.972;11.662;2023-11-21T09:35:05;1.88;;;1.10;;
66437;SDS011;54537;47.972;11.662;2023-11-21T09:37:33;1.75;;;1.13;;
66437;SDS011;54537;47.972;11.662;2023-11-21T09:40:01;3.03;;;1.00;;
66437;SDS011;54537;47.972;11.662;2023-11-21T09:42:29;2.65;;;1.40;;
66437;SDS011;54537;47.972;11.662;2023-11-21T09:45:01;2.10;;;1.13;;
66437;SDS011;54537;47.972;11.662;2023-11-21T09:49:58;4.97;;;1.35;;
66437;SDS011;54537;47.972;11.662;2023-11-21T09:52:27;3.15;;;0.90;;
66437;SDS011;54537;47.972;11.662;2023-11-21T09:54:54;1.63;;;1.10;;
66437;SDS011;54537;47.972;11.662;2023-11-21T09:57:22;2.70;;;0.90;;
66437;SDS011;54537;47.972;11.662;2023-11-21T09:59:50;2.38;;;1.30;;
66437;SDS011;54537;47.972;11.662;2023-11-21T10:02:18;1.10;;;1.00;;
66437;SDS011;54537;47.972;11.662;2023-11-21T10:04:46;1.65;;;1.00;;
66437;SDS011;54537;47.972;11.662;2023-11-21T10:07:14;4.80;;;1.17;;
66437;SDS011;54537;47.972;11.662;2023-11-21T10:09:43;3.67;;;1.40;;
66437;SDS011;54537;47.972;11.662;2023-11-21T10:12:10;3.78;;;1.00;;
66437;SDS011;54537;47.972;11.662;2023-11-21T10:14:38;7.20;;;1.15;;
66437;SDS011;54537;47.972;11.662;2023-11-21T10:17:09;2.63;;;1.10;;
66437;SDS011;54537;47.972;11.662;2023-11-21T10:19:37;1.90;;;1.13;;
66437;SDS011;54537;47.972;11.662;2023-11-21T10:22:05;4.13;;;0.95;;
66437;SDS011;54537;47.972;11.662;2023-11-21T10:24:33;1.80;;;0.82;;
66437;SDS011;54537;47.972;11.662;2023-11-21T10:26:59;1.80;;;1.15;;
66437;SDS011;54537;47.972;11.662;2023-11-21T10:29:28;4.20;;;1.00;;
66437;SDS011;54537;47.972;11.662;2023-11-21T10:31:55;2.28;;;0.70;;
66437;SDS011;54537;47.972;11.662;2023-11-21T10:34:23;1.63;;;0.82;;
66437;SDS011;54537;47.972;11.662;2023-11-21T10:36:52;3.72;;;1.30;;
66437;SDS011;54537;47.972;11.662;2023-11-21T10:39:21;1.48;;;0.93;;
66437;SDS011;54537;47.972;11.662;2023-11-21T10:41:50;1.55;;;0.90;;
66437;SDS011;54537;47.972;11.662;2023-11-21T10:44:17;5.80;;;0.93;;
66437;SDS011;54537;47.972;11.662;2023-11-21T10:46:45;1.38;;;0.85;;
66437;SDS011;54537;47.972;11.662;2023-11-21T10:49:15;2.50;;;0.90;;
66437;SDS011;54537;47.972;11.662;2023-11-21T10:51:43;2.80;;;0.80;;
66437;SDS011;54537;47.972;11.662;2023-11-21T10:54:09;1.67;;;1.00;;
66437;SDS011;54537;47.972;11.662;2023-11-21T10:56:37;2.35;;;0.98;;
66437;SDS011;54537;47.972;11.662;2023-11-21T10:59:07;2.92;;;1.15;;
66437;SDS011;54537;47.972;11.662;2023-11-21T11:01:34;2.20;;;1.20;;
66437;SDS011;54537;47.972;11.662;2023-11-21T11:04:00;3.50;;;1.10;;
66437;SDS011;54537;47.972;11.662;2023-11-21T11:06:31;3.60;;;1.17;;
66437;SDS011;54537;47.972;11.662;2023-11-21T11:08:58;1.48;;;0.95;;
66437;SDS011;54537;47.972;11.662;2023-11-21T11:11:24;1.15;;;0.70;;
66437;SDS011;54537;47.972;11.662;2023-11-21T11:13:51;1.35;;;0.75;;
66437;SDS011;54537;47.972;11.662;2023-11-21T11:16:20;2.13;;;0.93;;
66437;SDS011;54537;47.972;11.662;2023-11-21T11:18:47;3.28;;;1.33;;
66437;SDS011;54537;47.972;11.662;2023-11-21T11:21:21;2.88;;;0.98;;
66437;SDS011;54537;47.972;11.662;2023-11-21T11:23:58;2.88;;;1.05;;
66437;SDS011;54537;47.972;11.662;2023-11-21T11:26:36;2.15;;;1.05;;
66437;SDS011;54537;47.972;11.662;2023-11-21T11:29:10;2.30;;;1.10;;
66437;SDS011;54537;47.972;11.662;2023-11-21T11:31:48;5.57;;;1.17;;
66437;SDS011;54537;47.972;11.662;2023-11-21T11:34:21;1.85;;;1.10;;
66437;SDS011;54537;47.972;11.662;2023-11-21T11:36:53;6.05;;;1.30;;
66437;SDS011;54537;47.972;11.662;2023-11-21T11:41:56;4.40;;;1.30;;
66437;SDS011;54537;47.972;11.662;2023-11-21T11:47:19;3.28;;;1.13;;
66437;SDS011;54537;47.972;11.662;2023-11-21T11:50:00;1.98;;;1.23;;
66437;SDS011;54537;47.972;11.662;2023-11-21T11:52:32;4.95;;;1.50;;
66437;SDS011;54537;47.972;11.662;2023-11-21T11:55:00;1.67;;;1.10;;
66437;SDS011;54537;47.972;11.662;2023-11-21T11:57:26;6.40;;;1.20;;
66437;SDS011;54537;47.972;11.662;2023-11-21T12:02:47;3.85;;;1.10;;
66437;SDS011;54537;47.972;11.662;2023-11-21T12:05:14;2.65;;;1.40;;
66437;SDS011;54537;47.972;11.662;2023-11-21T12:07:43;4.03;;;1.60;;
66437;SDS011;54537;47.972;11.662;2023-11-21T12:10:14;2.35;;;1.20;;
66437;SDS011;54537;47.972;11.662;2023-11-21T12:12:43;1.58;;;1.20;;
66437;SDS011;54537;47.972;11.662;2023-11-21T12:15:11;2.03;;;0.90;;
66437;SDS011;54537;47.972;11.662;2023-11-21T12:17:38;4.00;;;1.08;;
66437;SDS011;54537;47.972;11.662;2023-11-21T12:20:06;5.22;;;1.73;;
66437;SDS011;54537;47.972;11.662;2023-11-21T12:22:40;5.20;;;1.52;;
66437;SDS011;54537;47.972;11.662;2023-11-21T12:25:08;5.20;;;1.38;;
66437;SDS011;54537;47.972;11.662;2023-11-21T12:27:34;2.08;;;1.13;;
66437;SDS011;54537;47.972;11.662;2023-11-21T12:30:01;1.90;;;1.10;;
66437;SDS011;54537;47.972;11.662;2023-11-21T12:32:28;3.92;;;1.20;;
66437;SDS011;54537;47.972;11.662;2023-11-21T12:34:54;1.85;;;1.17;;
66437;SDS011;54537;47.972;11.662;2023-11-21T12:37:22;3.40;;;1.23;;
66437;SDS011;54537;47.972;11.662;2023-11-21T12:39:48;5.07;;;1.20;;
66437;SDS011;54537;47.972;11.662;2023-11-21T12:42:15;2.72;;;1.10;;
66437;SDS011;54537;47.972;11.662;2023-11-21T12:44:42;2.58;;;1.25;;
66437;SDS011;54537;47.972;11.662;2023-11-21T12:47:16;3.33;;;1.27;;
66437;SDS011;54537;47.972;11.662;2023-11-21T12:49:43;2.20;;;1.10;;
66437;SDS011;54537;47.972;11.662;2023-11-21T12:52:09;2.67;;;1.38;;
66437;SDS011;54537;47.972;11.662;2023-11-21T12:54:38;3.00;;;1.10;;
66437;SDS011;54537;47.972;11.662;2023-11-21T12:57:04;5.78;;;1.38;;
66437;SDS011;54537;47.972;11.662;2023-11-21T12:59:33;2.97;;;1.10;;
66437;SDS011;54537;47.972;11.662;2023-11-21T13:02:00;3.70;;;1.30;;
66437;SDS011;54537;47.972;11.662;2023-11-21T13:04:30;5.60;;;1.27;;
66437;SDS011;54537;47.972;11.662;2023-11-21T13:07:02;5.35;;;2.20;;
66437;SDS011;54537;47.972;11.662;2023-11-21T13:09:31;4.40;;;1.45;;
66437;SDS011;54537;47.972;11.662;2023-11-21T13:12:00;9.10;;;1.65;;
66437;SDS011;54537;47.972;11.662;2023-11-21T13:14:29;4.60;;;1.25;;
66437;SDS011;54537;47.972;11.662;2023-11-21T13:16:57;3.92;;;1.75;;
66437;SDS011;54537;47.972;11.662;2023-11-21T13:19:23;4.85;;;1.98;;
66437;SDS011;54537;47.972;11.662;2023-11-21T13:21:50;6.55;;;2.08;;
66437;SDS011;54537;47.972;11.662;2023-11-21T13:24:16;4.82;;;1.90;;
66437;SDS011;54537;47.972;11.662;2023-11-21T13:26:43;7.15;;;2.20;;
66437;SDS011;54537;47.972;11.662;2023-11-21T13:29:12;9.32;;;2.30;;
66437;SDS011;54537;47.972;11.662;2023-11-21T13:31:39;5.63;;;1.50;;
66437;SDS011;54537;47.972;11.662;2023-11-21T13:34:05;9.48;;;2.17;;
66437;SDS011;54537;47.972;11.662;2023-11-21T13:36:33;7.15;;;1.70;;
66437;SDS011;54537;47.972;11.662;2023-11-21T13:39:00;8.68;;;2.15;;
66437;SDS011;54537;47.972;11.662;2023-11-21T13:41:32;4.55;;;1.48;;
66437;SDS011;54537;47.972;11.662;2023-11-21T13:43:58;2.40;;;1.30;;
66437;SDS011;54537;47.972;11.662;2023-11-21T13:46:40;6.22;;;1.40;;
66437;SDS011;54537;47.972;11.662;2023-11-21T13:49:07;4.95;;;1.40;;
66437;SDS011;54537;47.972;11.662;2023-11-21T13:51:35;3.08;;;1.63;;
66437;SDS011;54537;47.972;11.662;2023-11-21T13:54:05;3.25;;;1.70;;
66437;SDS011;54537;47.972;11.662;2023-11-21T13:56:34;7.03;;;2.17;;
66437;SDS011;54537;47.972;11.662;2023-11-21T13:59:01;4.05;;;1.92;;
66437;SDS011;54537;47.972;11.662;2023-11-21T14:01:34;4.97;;;2.00;;
66437;SDS011;54537;47.972;11.662;2023-11-21T14:04:20;4.13;;;1.77;;
66437;SDS011;54537;47.972;11.662;2023-11-21T14:07:00;2.28;;;1.20;;
66437;SDS011;54537;47.972;11.662;2023-11-21T14:09:42;4.35;;;1.63;;
66437;SDS011;54537;47.972;11.662;2023-11-21T14:12:09;3.08;;;1.30;;
66437;SDS011;54537;47.972;11.662;2023-11-21T14:14:38;6.20;;;1.40;;
66437;SDS011;54537;47.972;11.662;2023-11-21T14:17:05;6.03;;;1.50;;
66437;SDS011;54537;47.972;11.662;2023-11-21T14:19:33;5.13;;;1.65;;
66437;SDS011;54537;47.972;11.662;2023-11-21T14:22:03;3.80;;;1.50;;
66437;SDS011;54537;47.972;11.662;2023-11-21T14:24:30;3.97;;;1.55;;
66437;SDS011;54537;47.972;11.662;2023-11-21T14:26:57;6.22;;;1.70;;
66437;SDS011;54537;47.972;11.662;2023-11-21T14:29:24;2.80;;;1.70;;
66437;SDS011;54537;47.972;11.662;2023-11-21T14:31:52;2.35;;;1.40;;
66437;SDS011;54537;47.972;11.662;2023-11-21T14:34:21;4.00;;;1.13;;
66437;SDS011;54537;47.972;11.662;2023-11-21T14:36:49;2.58;;;1.42;;
66437;SDS011;54537;47.972;11.662;2023-11-21T14:39:16;4.00;;;1.90;;
66437;SDS011;54537;47.972;11.662;2023-11-21T14:41:48;4.43;;;2.40;;
66437;SDS011;54537;47.972;11.662;2023-11-21T14:44:15;4.53;;;1.70;;
66437;SDS011;54537;47.972;11.662;2023-11-21T14:46:41;3.13;;;2.03;;